Time;durP1;ratioP1;P1;durP2;ratioP2;P2;SDS_P1;SDS_P2;PMS_P1;PMS_P2;Temp;Humidity;BMP_temperature;BMP_pressure;BME280_temperature;BME280_humidity;BME280_pressure;Samples;Min_cycle;Max_cycle;Signal;HPM_P1;HPM_P2
2023/03/17 00:00:37;;;;;;;5.77;5.17;;;7.60;74.90;;;;;;5019622;28;20229;-83
2023/03/17 00:03:04;;;;;;;6.30;5.70;;;7.50;75.80;;;;;;5015011;28;20205;-83
2023/03/17 00:05:32;;;;;;;5.33;4.83;;;7.60;75.20;;;;;;5015938;28;20470;-83
2023/03/17 00:08:09;;;;;;;5.47;5.00;;;7.50;75.30;;;;;;5015509;28;20351;-81
2023/03/17 00:10:35;;;;;;;4.90;4.50;;;7.50;75.80;;;;;;5017574;28;20189;-83
2023/03/17 00:13:02;;;;;;;5.10;4.60;;;7.30;76.60;;;;;;5018101;28;20177;-79
2023/03/17 00:15:28;;;;;;;6.87;6.17;;;7.40;77.70;;;;;;5019951;28;20591;-82
2023/03/17 00:17:55;;;;;;;7.00;6.30;;;7.40;78.70;;;;;;5019807;28;20193;-82
2023/03/17 00:20:27;;;;;;;7.53;6.43;;;7.50;78.90;;;;;;5019941;28;20220;-82
2023/03/17 00:23:03;;;;;;;8.57;5.97;;;7.50;79.00;;;;;;5017819;28;20209;-82
2023/03/17 00:25:32;;;;;;;6.43;5.60;;;7.50;78.20;;;;;;5034075;28;20244;-82
2023/03/17 00:27:58;;;;;;;7.50;6.80;;;7.40;77.70;;;;;;5038159;28;20180;-82
2023/03/17 00:30:24;;;;;;;7.77;6.03;;;7.20;79.20;;;;;;5029612;28;20193;-81
2023/03/17 00:32:52;;;;;;;8.67;6.97;;;7.20;79.80;;;;;;5016937;28;20193;-82
2023/03/17 00:35:26;;;;;;;8.33;7.47;;;7.20;80.20;;;;;;5017437;28;20205;-82
2023/03/17 00:37:54;;;;;;;5.47;4.97;;;7.20;80.90;;;;;;5017827;28;20612;-83
2023/03/17 00:40:21;;;;;;;5.00;4.43;;;7.20;80.50;;;;;;5017354;28;20263;-82
2023/03/17 00:42:48;;;;;;;5.33;4.40;;;7.10;80.20;;;;;;5016839;28;20360;-83
2023/03/17 00:45:14;;;;;;;6.27;4.53;;;7.20;80.00;;;;;;5017142;28;20678;-83
2023/03/17 00:47:40;;;;;;;5.00;4.53;;;7.10;78.40;;;;;;5016921;28;20193;-83
2023/03/17 00:50:11;;;;;;;4.40;4.00;;;7.10;78.40;;;;;;4997828;28;20202;-84
2023/03/17 00:52:37;;;;;;;5.07;4.60;;;7.00;78.90;;;;;;5018876;28;20191;-83
2023/03/17 00:55:05;;;;;;;4.73;4.23;;;7.00;79.70;;;;;;5025865;28;20703;-83
2023/03/17 00:57:30;;;;;;;4.70;4.20;;;7.10;79.80;;;;;;5015175;28;20178;-83
2023/03/17 00:59:56;;;;;;;5.37;4.47;;;7.10;79.50;;;;;;5015226;28;20245;-85
2023/03/17 01:02:22;;;;;;;6.30;4.13;;;7.00;80.20;;;;;;5014463;28;20202;-82
2023/03/17 01:04:47;;;;;;;4.87;4.37;;;7.10;80.00;;;;;;5014929;28;20181;-82
2023/03/17 01:07:13;;;;;;;6.33;4.50;;;7.10;79.60;;;;;;5015476;28;20185;-84
2023/03/17 01:09:40;;;;;;;4.93;4.40;;;7.10;80.00;;;;;;5017068;28;20202;-82
2023/03/17 01:12:09;;;;;;;5.47;4.20;;;7.20;79.80;;;;;;5000159;28;20177;-82
2023/03/17 01:14:34;;;;;;;5.23;4.73;;;7.10;80.50;;;;;;5023114;28;20200;-81
2023/03/17 01:17:01;;;;;;;5.47;4.97;;;7.00;80.80;;;;;;5027162;28;20174;-79
2023/03/17 01:19:26;;;;;;;5.90;4.80;;;7.10;80.90;;;;;;5026930;28;20202;-81
2023/03/17 01:21:52;;;;;;;4.63;4.20;;;7.10;81.00;;;;;;5026993;28;20180;-81
2023/03/17 01:24:18;;;;;;;6.57;4.67;;;7.10;80.70;;;;;;5023077;28;20208;-82
2023/03/17 01:26:44;;;;;;;4.80;4.30;;;7.20;79.90;;;;;;5036747;28;20675;-83
2023/03/17 01:29:10;;;;;;;4.73;4.33;;;7.20;80.30;;;;;;5037543;28;20679;-82
2023/03/17 01:31:36;;;;;;;6.37;4.97;;;7.10;80.90;;;;;;5037550;28;20180;-82
2023/03/17 01:34:03;;;;;;;6.00;4.50;;;7.10;81.40;;;;;;5022176;28;20731;-82
2023/03/17 01:36:28;;;;;;;5.13;4.63;;;7.10;81.50;;;;;;5002657;28;20205;-82
2023/03/17 01:38:54;;;;;;;6.67;4.80;;;7.00;82.20;;;;;;5020205;28;20686;-82
2023/03/17 01:41:20;;;;;;;4.67;4.27;;;7.00;82.20;;;;;;5020012;28;20312;-81
2023/03/17 01:43:45;;;;;;;6.13;5.50;;;7.10;82.50;;;;;;5019135;28;20257;-81
2023/03/17 01:46:32;;;;;;;5.47;4.93;;;7.10;81.80;;;;;;5018102;28;20231;-82
2023/03/17 01:49:18;;;;;;;4.70;4.30;;;7.10;82.00;;;;;;5024176;28;20204;-82
2023/03/17 01:51:50;;;;;;;4.77;4.27;;;7.00;82.10;;;;;;5018926;28;20205;-82
2023/03/17 01:54:59;;;;;;;4.80;4.37;;;7.00;81.40;;;;;;5016872;28;20178;-83
2023/03/17 01:57:44;;;;;;;5.67;4.23;;;7.00;81.80;;;;;;4981977;28;20231;-81
2023/03/17 02:00:13;;;;;;;5.10;4.60;;;6.90;82.10;;;;;;5017829;28;20217;-82
2023/03/17 02:02:42;;;;;;;5.10;4.60;;;6.90;82.20;;;;;;5018558;28;20202;-83
2023/03/17 02:05:12;;;;;;;4.90;4.40;;;6.80;82.80;;;;;;5019321;28;20181;-84
2023/03/17 02:07:38;;;;;;;4.30;3.90;;;6.70;83.20;;;;;;5020156;28;20209;-81
2023/03/17 02:10:05;;;;;;;5.10;4.40;;;6.70;83.70;;;;;;5020061;28;20201;-82
2023/03/17 02:12:33;;;;;;;4.80;4.23;;;6.70;83.60;;;;;;5019151;28;20178;-83
2023/03/17 02:14:59;;;;;;;4.87;4.37;;;6.80;83.50;;;;;;5019398;28;20631;-82
2023/03/17 02:17:26;;;;;;;6.87;4.27;;;6.80;83.00;;;;;;5019717;28;20170;-82
2023/03/17 02:19:53;;;;;;;5.37;4.30;;;6.80;83.00;;;;;;4999954;28;20210;-81
2023/03/17 02:22:19;;;;;;;5.00;4.47;;;6.80;82.70;;;;;;5017248;28;20529;-82
2023/03/17 02:24:57;;;;;;;4.23;3.93;;;6.80;83.50;;;;;;5029970;28;20188;-84
2023/03/17 02:27:34;;;;;;;5.70;4.63;;;6.80;83.50;;;;;;5027787;28;20181;-80
2023/03/17 02:30:01;;;;;;;6.37;4.67;;;6.80;83.20;;;;;;5031502;28;20304;-83
2023/03/17 02:32:27;;;;;;;5.70;5.00;;;6.80;83.90;;;;;;5030821;28;20196;-82
2023/03/17 02:34:52;;;;;;;6.37;5.40;;;6.80;84.50;;;;;;5031137;28;20182;-82
2023/03/17 02:37:19;;;;;;;5.80;5.30;;;6.80;84.60;;;;;;5030679;28;20196;-82
2023/03/17 02:39:45;;;;;;;5.40;4.87;;;6.80;83.60;;;;;;5020687;28;20259;-83
2023/03/17 02:42:12;;;;;;;5.90;5.30;;;6.80;84.10;;;;;;5017765;28;20186;-83
2023/03/17 02:44:39;;;;;;;6.63;5.73;;;6.80;84.90;;;;;;4998716;28;20185;-80
2023/03/17 02:47:06;;;;;;;7.37;5.63;;;6.70;84.60;;;;;;5025637;28;20177;-82
2023/03/17 02:49:32;;;;;;;6.10;5.23;;;6.80;84.20;;;;;;5018968;28;20244;-82
2023/03/17 02:51:58;;;;;;;5.60;4.60;;;6.80;83.90;;;;;;5015724;28;20178;-82
2023/03/17 02:54:24;;;;;;;6.53;5.27;;;6.80;83.20;;;;;;5015981;28;20276;-81
2023/03/17 02:56:50;;;;;;;5.87;5.27;;;6.70;83.20;;;;;;5017201;28;20280;-82
2023/03/17 02:59:15;;;;;;;5.60;5.10;;;6.70;83.20;;;;;;5016957;28;20225;-83
2023/03/17 03:01:41;;;;;;;5.97;5.33;;;6.60;84.00;;;;;;5018063;28;20670;-82
2023/03/17 03:04:07;;;;;;;6.77;5.20;;;6.60;83.80;;;;;;5019196;28;20213;-80
2023/03/17 03:06:33;;;;;;;9.30;6.77;;;6.50;84.00;;;;;;5018906;28;20710;-83
2023/03/17 03:08:59;;;;;;;10.73;6.60;;;6.50;84.70;;;;;;5018712;28;20189;-82
2023/03/17 03:11:25;;;;;;;5.67;5.07;;;6.40;83.90;;;;;;5019391;28;20190;-81
2023/03/17 03:13:51;;;;;;;6.53;5.83;;;6.30;83.90;;;;;;5018609;28;20189;-81
2023/03/17 03:16:16;;;;;;;11.30;9.93;;;6.20;84.20;;;;;;5018115;28;20181;-82
2023/03/17 03:18:42;;;;;;;17.53;15.70;;;6.20;85.00;;;;;;5019121;28;20189;-83
2023/03/17 03:21:09;;;;;;;11.10;9.30;;;6.20;85.70;;;;;;5018502;28;20209;-82
2023/03/17 03:23:35;;;;;;;8.97;7.47;;;6.20;85.60;;;;;;5018440;28;20240;-81
2023/03/17 03:26:01;;;;;;;6.40;5.80;;;6.20;85.70;;;;;;5039895;28;20181;-81
2023/03/17 03:28:26;;;;;;;5.90;5.13;;;6.20;84.00;;;;;;5039254;28;20188;-81
2023/03/17 03:30:52;;;;;;;7.40;6.60;;;6.10;83.80;;;;;;5038983;28;20201;-82
2023/03/17 03:33:18;;;;;;;6.03;5.37;;;6.00;83.80;;;;;;5039071;28;20231;-83
2023/03/17 03:35:44;;;;;;;5.80;5.30;;;5.90;84.30;;;;;;5020791;28;20260;-81
2023/03/17 03:38:11;;;;;;;5.33;4.77;;;5.80;85.10;;;;;;5017040;28;20182;-83
2023/03/17 03:40:37;;;;;;;5.43;4.60;;;5.80;83.30;;;;;;5016578;28;20221;-82
2023/03/17 03:43:03;;;;;;;6.70;4.63;;;5.60;85.40;;;;;;5024988;28;20213;-82
2023/03/17 03:45:30;;;;;;;4.30;3.90;;;5.70;84.80;;;;;;5002488;28;20284;-82
2023/03/17 03:47:56;;;;;;;5.40;4.63;;;5.70;85.00;;;;;;5015825;28;20189;-82
2023/03/17 03:50:21;;;;;;;5.43;4.60;;;5.70;84.70;;;;;;5016482;28;20186;-81
2023/03/17 03:52:47;;;;;;;4.87;4.13;;;5.70;84.20;;;;;;4999142;28;20199;-82
2023/03/17 03:55:13;;;;;;;4.87;4.50;;;5.70;84.40;;;;;;5016993;28;20185;-82
2023/03/17 03:57:38;;;;;;;7.43;4.40;;;5.80;83.60;;;;;;5016278;28;20235;-81
2023/03/17 04:00:06;;;;;;;7.30;4.67;;;5.70;83.90;;;;;;5018515;28;20244;-83
2023/03/17 04:02:33;;;;;;;6.73;4.80;;;5.80;82.90;;;;;;5018849;28;20208;-82
2023/03/17 04:04:58;;;;;;;8.73;4.63;;;5.70;83.60;;;;;;5019365;28;20166;-83
2023/03/17 04:07:24;;;;;;;17.27;4.87;;;5.70;83.50;;;;;;5018419;28;20177;-82
2023/03/17 04:09:49;;;;;;;5.63;4.37;;;5.70;82.70;;;;;;5018144;28;20197;-82
2023/03/17 04:12:16;;;;;;;5.83;4.33;;;5.60;84.00;;;;;;5017805;28;20174;-84
2023/03/17 04:14:43;;;;;;;4.90;4.50;;;5.60;84.10;;;;;;5017962;28;20177;-82
2023/03/17 04:17:10;;;;;;;7.07;4.60;;;5.60;83.80;;;;;;5018160;28;20178;-82
2023/03/17 04:19:37;;;;;;;4.70;4.30;;;5.60;84.20;;;;;;5017421;28;20257;-82
2023/03/17 04:22:03;;;;;;;7.93;5.17;;;5.70;83.50;;;;;;5018040;28;20559;-83
2023/03/17 04:24:28;;;;;;;4.97;4.33;;;5.70;82.40;;;;;;5026734;28;20181;-83
2023/03/17 04:26:55;;;;;;;4.90;4.40;;;5.70;81.90;;;;;;5038148;28;20184;-84
2023/03/17 04:29:20;;;;;;;6.53;4.73;;;5.60;83.10;;;;;;5037582;28;20388;-81
2023/03/17 04:31:46;;;;;;;8.00;4.40;;;5.70;81.90;;;;;;5022910;28;20243;-80
2023/03/17 04:34:16;;;;;;;4.50;4.10;;;5.50;81.80;;;;;;5016954;28;20697;-82
2023/03/17 04:36:43;;;;;;;5.40;4.47;;;5.40;83.40;;;;;;5016110;28;20243;-80
2023/03/17 04:39:09;;;;;;;9.10;4.60;;;5.40;83.80;;;;;;5026949;28;20201;-82
2023/03/17 04:41:35;;;;;;;5.33;4.50;;;5.40;83.20;;;;;;5017302;22;20228;-80
2023/03/17 04:44:01;;;;;;;5.27;4.73;;;5.30;83.40;;;;;;5050868;28;20207;-81
2023/03/17 04:46:27;;;;;;;6.17;4.70;;;5.40;83.40;;;;;;5030963;28;20250;-80
2023/03/17 04:48:52;;;;;;;6.40;4.43;;;5.30;83.90;;;;;;5013588;28;20176;-79
2023/03/17 04:51:18;;;;;;;5.07;4.50;;;5.40;84.40;;;;;;5025388;28;20217;-79
2023/03/17 04:53:45;;;;;;;4.97;4.30;;;5.40;83.00;;;;;;5020570;28;20193;-81
2023/03/17 04:56:11;;;;;;;5.00;4.50;;;5.40;83.30;;;;;;5017710;28;20178;-79
2023/03/17 04:58:37;;;;;;;4.27;3.93;;;5.40;82.40;;;;;;5018865;28;20271;-79
2023/03/17 05:01:04;;;;;;;5.73;4.30;;;5.40;83.90;;;;;;5035038;28;20192;-79
2023/03/17 05:03:30;;;;;;;5.23;4.67;;;5.30;83.10;;;;;;5034709;28;20211;-79
2023/03/17 05:05:57;;;;;;;6.33;4.50;;;5.30;82.80;;;;;;5029843;28;20185;-80
2023/03/17 05:08:23;;;;;;;5.07;4.37;;;5.20;83.40;;;;;;5027785;28;20665;-79
2023/03/17 05:10:50;;;;;;;6.57;4.30;;;5.10;83.40;;;;;;5024504;28;20276;-79
2023/03/17 05:13:17;;;;;;;5.30;4.77;;;5.00;85.40;;;;;;5019668;28;20178;-79
2023/03/17 05:15:47;;;;;;;5.40;4.80;;;5.00;85.90;;;;;;5020346;28;20726;-80
2023/03/17 05:18:13;;;;;;;5.83;4.77;;;5.00;86.00;;;;;;5019756;28;20178;-80
2023/03/17 05:20:40;;;;;;;6.13;4.73;;;4.90;87.90;;;;;;5020116;28;20245;-80
2023/03/17 05:23:05;;;;;;;5.03;4.53;;;4.90;86.10;;;;;;5018575;28;20202;-80
2023/03/17 05:25:31;;;;;;;5.30;4.40;;;4.80;87.90;;;;;;5034464;28;20662;-81
2023/03/17 05:27:57;;;;;;;8.33;4.60;;;4.80;88.00;;;;;;5038924;28;20246;-81
2023/03/17 05:30:24;;;;;;;5.70;4.83;;;4.80;87.20;;;;;;5039100;28;20192;-79
2023/03/17 05:32:50;;;;;;;4.90;4.40;;;4.80;87.80;;;;;;5028821;28;20629;-79
2023/03/17 05:35:16;;;;;;;6.30;4.17;;;4.80;87.40;;;;;;5014274;28;20177;-79
2023/03/17 05:37:42;;;;;;;5.07;4.60;;;4.80;87.60;;;;;;5016139;28;20181;-81
2023/03/17 05:40:09;;;;;;;4.70;4.30;;;4.80;88.20;;;;;;4997554;28;20181;-81
2023/03/17 05:42:35;;;;;;;7.10;4.97;;;4.70;88.30;;;;;;5014853;28;20746;-81
2023/03/17 05:45:01;;;;;;;4.83;4.27;;;4.80;87.90;;;;;;5016979;28;20185;-80
2023/03/17 05:47:26;;;;;;;6.33;4.70;;;4.70;87.60;;;;;;5016277;28;20174;-79
2023/03/17 05:49:52;;;;;;;6.07;4.33;;;4.70;87.40;;;;;;5036700;28;20181;-80
2023/03/17 05:52:18;;;;;;;8.67;5.47;;;4.70;87.90;;;;;;5036207;28;20221;-79
2023/03/17 05:54:47;;;;;;;5.60;4.63;;;4.80;87.60;;;;;;5038542;28;20239;-78
2023/03/17 05:57:14;;;;;;;6.27;5.63;;;4.80;88.00;;;;;;5031857;28;20200;-78
2023/03/17 05:59:41;;;;;;;6.97;5.63;;;4.90;89.50;;;;;;5023938;28;20177;-80
2023/03/17 06:02:07;;;;;;;7.43;5.87;;;4.90;90.40;;;;;;5036968;28;20201;-79
2023/03/17 06:04:33;;;;;;;11.07;5.73;;;5.00;90.70;;;;;;5037543;28;20185;-79
2023/03/17 06:06:59;;;;;;;7.20;5.30;;;5.00;90.00;;;;;;5023294;28;20193;-78
2023/03/17 06:09:24;;;;;;;9.80;6.77;;;5.10;90.50;;;;;;5018880;28;20269;-82
2023/03/17 06:11:50;;;;;;;7.03;6.33;;;5.00;91.40;;;;;;5017600;28;20209;-81
2023/03/17 06:14:17;;;;;;;12.40;7.63;;;5.00;91.60;;;;;;5017230;28;20188;-79
2023/03/17 06:16:42;;;;;;;10.83;8.20;;;5.10;92.40;;;;;;5020466;28;20178;-79
2023/03/17 06:19:08;;;;;;;8.07;6.83;;;5.00;92.40;;;;;;5013472;28;20193;-80
2023/03/17 06:21:34;;;;;;;11.40;8.00;;;5.00;93.50;;;;;;5028364;28;20202;-77
2023/03/17 06:23:59;;;;;;;27.90;8.40;;;4.90;93.80;;;;;;5012706;28;20205;-79
2023/03/17 06:26:26;;;;;;;22.27;7.70;;;4.90;93.20;;;;;;5037524;28;20180;-81
2023/03/17 06:28:51;;;;;;;27.10;9.77;;;5.00;92.20;;;;;;5018932;28;20185;-82
2023/03/17 06:31:17;;;;;;;11.73;8.40;;;5.00;91.20;;;;;;5016777;28;20323;-78
2023/03/17 06:33:42;;;;;;;12.30;9.40;;;5.00;91.80;;;;;;5004724;28;20224;-79
2023/03/17 06:36:08;;;;;;;10.50;8.33;;;4.90;92.20;;;;;;5021773;28;20196;-80
2023/03/17 06:38:35;;;;;;;12.17;8.77;;;5.00;92.70;;;;;;5016584;28;20258;-79
2023/03/17 06:41:00;;;;;;;21.40;8.30;;;5.10;92.70;;;;;;5015243;28;20224;-79
2023/03/17 06:43:26;;;;;;;11.80;8.20;;;5.20;91.70;;;;;;5033006;28;20224;-82
2023/03/17 06:45:52;;;;;;;14.73;8.30;;;5.20;90.40;;;;;;5016207;28;20192;-81
2023/03/17 06:48:18;;;;;;;8.00;7.17;;;5.10;91.50;;;;;;5017775;28;20300;-80
2023/03/17 06:50:46;;;;;;;10.43;8.27;;;5.00;92.50;;;;;;5027555;28;20260;-80
2023/03/17 06:53:12;;;;;;;14.57;7.70;;;5.10;92.80;;;;;;5021446;28;20189;-80
2023/03/17 06:55:38;;;;;;;13.03;8.93;;;5.10;93.80;;;;;;5017414;28;20224;-80
2023/03/17 06:58:03;;;;;;;9.17;7.33;;;5.20;94.50;;;;;;5018457;28;20181;-79
2023/03/17 07:00:30;;;;;;;11.37;9.07;;;5.30;94.40;;;;;;5019618;28;20212;-80
2023/03/17 07:02:56;;;;;;;9.83;8.80;;;5.30;94.10;;;;;;5019199;28;20228;-80
2023/03/17 07:05:22;;;;;;;10.80;8.47;;;5.50;93.10;;;;;;5018362;28;20177;-78
2023/03/17 07:07:48;;;;;;;9.93;8.60;;;5.50;92.60;;;;;;5016927;28;20667;-78
2023/03/17 07:10:17;;;;;;;10.17;8.17;;;5.60;92.90;;;;;;5018307;28;20249;-80
2023/03/17 07:12:43;;;;;;;11.67;10.57;;;5.70;92.80;;;;;;5016856;28;20268;-80
2023/03/17 07:15:11;;;;;;;11.57;8.37;;;5.70;92.80;;;;;;5019695;28;20797;-79
2023/03/17 07:17:37;;;;;;;16.30;10.20;;;5.80;92.10;;;;;;5017949;28;20247;-82
2023/03/17 07:20:05;;;;;;;11.33;8.57;;;5.80;92.60;;;;;;5017484;28;20763;-80
2023/03/17 07:22:31;;;;;;;9.47;8.47;;;5.90;92.20;;;;;;5030952;28;20212;-81
2023/03/17 07:24:57;;;;;;;10.53;9.07;;;6.00;92.00;;;;;;5036237;28;20188;-80
2023/03/17 07:27:24;;;;;;;12.77;8.40;;;6.00;91.50;;;;;;5027880;28;20682;-81
2023/03/17 07:29:50;;;;;;;11.33;8.47;;;6.20;91.50;;;;;;5021008;28;20186;-81
2023/03/17 07:32:16;;;;;;;10.33;8.57;;;6.30;90.70;;;;;;5015936;28;20205;-82
2023/03/17 07:34:42;;;;;;;10.70;9.27;;;6.30;90.40;;;;;;5014982;28;20351;-82
2023/03/17 07:37:09;;;;;;;9.50;8.30;;;6.40;90.50;;;;;;5015728;28;20190;-81
2023/03/17 07:39:35;;;;;;;10.17;8.37;;;6.50;90.30;;;;;;5016182;28;20189;-81
2023/03/17 07:42:00;;;;;;;9.43;7.67;;;6.60;89.80;;;;;;5017406;28;20210;-82
2023/03/17 07:44:26;;;;;;;9.07;7.50;;;6.60;88.80;;;;;;5016089;28;20745;-80
2023/03/17 07:46:52;;;;;;;8.40;7.07;;;6.70;88.30;;;;;;5016089;28;20540;-81
2023/03/17 07:49:18;;;;;;;7.93;7.23;;;6.80;87.30;;;;;;5016011;28;20185;-81
2023/03/17 07:51:44;;;;;;;7.90;7.10;;;6.90;86.20;;;;;;5016222;28;20785;-81
2023/03/17 07:54:11;;;;;;;11.43;6.83;;;7.00;84.90;;;;;;5019848;28;20205;-81
2023/03/17 07:56:37;;;;;;;7.83;7.23;;;7.10;83.90;;;;;;5017729;28;20239;-81
2023/03/17 07:59:03;;;;;;;9.30;7.10;;;7.20;82.50;;;;;;4997363;28;20232;-81
2023/03/17 08:01:29;;;;;;;7.43;6.77;;;7.10;84.00;;;;;;5009284;28;20267;-80
2023/03/17 08:03:55;;;;;;;6.93;6.20;;;7.10;84.60;;;;;;5015497;28;20205;-80
2023/03/17 08:06:24;;;;;;;8.80;7.47;;;7.10;84.80;;;;;;5015249;28;20219;-82
2023/03/17 08:08:50;;;;;;;7.20;6.50;;;7.40;83.30;;;;;;5015382;28;20177;-82
2023/03/17 08:11:16;;;;;;;7.90;7.13;;;7.50;82.40;;;;;;5015657;28;20196;-79
2023/03/17 08:13:42;;;;;;;7.80;6.30;;;7.50;82.20;;;;;;5017147;28;20174;-79
2023/03/17 08:16:08;;;;;;;6.90;6.30;;;7.50;82.90;;;;;;5017645;28;20181;-80
2023/03/17 08:18:34;;;;;;;7.53;6.83;;;7.70;81.10;;;;;;5019594;28;20239;-80
2023/03/17 08:20:59;;;;;;;8.27;6.30;;;7.70;81.50;;;;;;5016715;28;20198;-81
2023/03/17 08:23:25;;;;;;;6.70;5.97;;;7.80;79.90;;;;;;5028669;28;20250;-80
2023/03/17 08:25:56;;;;;;;10.47;9.57;;;7.90;80.70;;;;;;5020636;28;20892;-81
2023/03/17 08:28:22;;;;;;;6.27;5.63;;;7.90;80.30;;;;;;4996107;28;20170;-80
2023/03/17 08:30:48;;;;;;;6.83;6.00;;;8.10;79.40;;;;;;5012658;28;20197;-80
2023/03/17 08:33:13;;;;;;;6.03;5.40;;;8.00;80.40;;;;;;5012509;28;20190;-80
2023/03/17 08:35:41;;;;;;;5.90;5.40;;;7.70;79.50;;;;;;5013099;28;20236;-81
2023/03/17 08:38:06;;;;;;;6.30;5.70;;;7.70;81.80;;;;;;5013755;28;20766;-79
2023/03/17 08:40:32;;;;;;;5.50;4.90;;;7.90;80.50;;;;;;5013612;28;20205;-83
2023/03/17 08:42:58;;;;;;;6.30;5.70;;;7.90;80.10;;;;;;5015928;28;20299;-80
2023/03/17 08:45:24;;;;;;;5.20;4.73;;;8.00;79.70;;;;;;5020193;28;20232;-78
2023/03/17 08:47:51;;;;;;;6.67;5.50;;;8.30;77.60;;;;;;5019702;28;20558;-79
2023/03/17 08:50:21;;;;;;;19.23;6.60;;;8.50;75.70;;;;;;5019850;28;20881;-80
2023/03/17 08:52:47;;;;;;;5.17;4.67;;;8.70;74.20;;;;;;5019449;28;20668;-82
2023/03/17 08:55:15;;;;;;;5.87;4.30;;;8.60;74.00;;;;;;5026083;28;20268;-78
2023/03/17 08:57:43;;;;;;;4.57;4.17;;;8.80;72.20;;;;;;5039646;28;20589;-80
2023/03/17 09:00:10;;;;;;;4.77;4.27;;;8.80;71.10;;;;;;5039453;28;20173;-80
2023/03/17 09:02:38;;;;;;;4.50;4.10;;;9.00;69.40;;;;;;5039866;28;20231;-83
2023/03/17 09:05:05;;;;;;;4.40;4.00;;;9.10;68.50;;;;;;5028725;28;20192;-80
2023/03/17 09:07:31;;;;;;;4.70;4.30;;;9.40;67.10;;;;;;5032285;28;20181;-79
2023/03/17 09:09:58;;;;;;;5.00;4.50;;;9.60;63.00;;;;;;5019828;28;20205;-80
2023/03/17 09:12:23;;;;;;;5.77;5.07;;;9.80;64.30;;;;;;5020522;28;20200;-81
2023/03/17 09:14:50;;;;;;;5.50;4.97;;;10.00;65.70;;;;;;5019539;28;20231;-77
2023/03/17 09:17:15;;;;;;;5.97;5.37;;;10.10;64.00;;;;;;5019992;28;20181;-80
2023/03/17 09:19:42;;;;;;;5.37;4.87;;;10.40;63.10;;;;;;5022922;28;20179;-78
2023/03/17 09:22:12;;;;;;;5.60;5.10;;;10.50;62.60;;;;;;5021924;28;20537;-81
2023/03/17 09:24:38;;;;;;;5.90;5.40;;;10.70;60.40;;;;;;5018642;28;20221;-81
2023/03/17 09:27:04;;;;;;;5.47;4.97;;;11.10;57.50;;;;;;5018105;28;20187;-80
2023/03/17 09:29:30;;;;;;;6.03;5.57;;;11.40;56.80;;;;;;5017550;28;20183;-81
2023/03/17 09:31:56;;;;;;;6.00;5.50;;;11.30;58.40;;;;;;5017776;28;20213;-81
2023/03/17 09:34:23;;;;;;;5.80;5.30;;;11.40;57.30;;;;;;5019700;28;20196;-79
2023/03/17 09:36:50;;;;;;;6.27;5.70;;;11.60;59.30;;;;;;5035733;28;20841;-79
2023/03/17 09:39:15;;;;;;;17.20;5.87;;;11.60;60.00;;;;;;5002252;28;20184;-79
2023/03/17 09:41:59;;;;;;;6.47;5.87;;;11.80;58.50;;;;;;5018416;28;20224;-79
2023/03/17 09:44:31;;;;;;;8.90;6.53;;;11.90;58.30;;;;;;5019061;28;20219;-80
2023/03/17 09:47:24;;;;;;;6.87;6.17;;;11.80;58.60;;;;;;5019760;28;20169;-79
2023/03/17 09:49:55;;;;;;;17.40;7.23;;;12.20;58.60;;;;;;5018977;28;20227;-80
2023/03/17 09:52:27;;;;;;;6.97;6.10;;;12.50;56.10;;;;;;5028157;28;20261;-81
2023/03/17 09:54:53;;;;;;;7.77;7.07;;;13.00;53.60;;;;;;5037316;28;20176;-80
2023/03/17 09:57:36;;;;;;;6.80;6.20;;;13.00;54.00;;;;;;5038023;28;20543;-79
2023/03/17 10:00:05;;;;;;;7.17;6.47;;;12.90;54.30;;;;;;5038104;28;20188;-80
2023/03/17 10:02:33;;;;;;;10.53;6.73;;;13.40;51.90;;;;;;5037306;28;20173;-82
2023/03/17 10:05:12;;;;;;;6.87;6.20;;;13.60;51.80;;;;;;5036734;28;20186;-81
2023/03/17 10:08:01;;;;;;;6.90;6.20;;;13.50;51.80;;;;;;5020921;28;20906;-79
2023/03/17 10:10:53;;;;;;;6.53;6.03;;;13.60;52.50;;;;;;5003053;28;20362;-79
2023/03/17 10:13:48;;;;;;;6.80;6.10;;;13.70;52.10;;;;;;5001524;28;20250;-83
2023/03/17 10:16:20;;;;;;;8.83;6.60;;;13.80;51.50;;;;;;5028225;28;20190;-80
2023/03/17 10:18:59;;;;;;;6.87;6.10;;;13.80;52.20;;;;;;5027486;28;20555;-82
2023/03/17 10:21:30;;;;;;;7.13;6.43;;;14.00;51.30;;;;;;5023223;28;20259;-80
2023/03/17 10:23:57;;;;;;;9.70;6.00;;;13.90;51.70;;;;;;5022875;28;20199;-81
2023/03/17 10:26:44;;;;;;;6.50;5.90;;;14.00;52.10;;;;;;5024249;28;20912;-80
2023/03/17 10:29:21;;;;;;;6.87;6.17;;;13.70;52.10;;;;;;5021142;28;20670;-84
2023/03/17 10:31:47;;;;;;;10.97;7.00;;;13.50;53.30;;;;;;5021176;28;20200;-80
2023/03/17 10:34:22;;;;;;;7.13;6.50;;;13.60;53.10;;;;;;5020684;28;20725;-83
2023/03/17 10:36:52;;;;;;;6.53;5.93;;;13.90;50.80;;;;;;5027022;28;20180;-80
2023/03/17 10:39:21;;;;;;;6.47;5.87;;;14.00;51.10;;;;;;5041108;28;20191;-81
2023/03/17 10:41:59;;;;;;;7.23;6.63;;;14.20;51.80;;;;;;5035949;28;20222;-80
2023/03/17 10:44:34;;;;;;;7.47;6.23;;;14.20;49.90;;;;;;5002422;28;20209;-83
2023/03/17 10:47:00;;;;;;;6.77;6.17;;;14.20;51.60;;;;;;5010736;28;20180;-80
2023/03/17 10:49:35;;;;;;;6.90;6.30;;;14.30;51.00;;;;;;5022020;28;20170;-81
2023/03/17 10:52:06;;;;;;;7.07;6.47;;;14.40;49.50;;;;;;5021631;28;20281;-82
2023/03/17 10:54:36;;;;;;;9.63;8.47;;;14.80;49.50;;;;;;5077624;22;20213;-82
2023/03/17 10:57:06;;;;;;;6.70;6.20;;;15.50;47.80;;;;;;5050378;28;20195;-84
2023/03/17 10:59:41;;;;;;;7.40;6.63;;;15.70;46.70;;;;;;5043515;28;20188;-86
2023/03/17 11:02:26;;;;;;;7.57;6.90;;;15.70;44.30;;;;;;5043273;28;20235;-85
2023/03/17 11:04:58;;;;;;;7.67;6.97;;;15.80;45.40;;;;;;5043084;28;20231;-86
2023/03/17 11:07:34;;;;;;;7.27;6.67;;;15.20;47.90;;;;;;5043836;28;20170;-85
2023/03/17 11:10:01;;;;;;;7.10;6.50;;;15.70;46.90;;;;;;5043378;28;20158;-84
2023/03/17 11:12:38;;;;;;;6.23;5.70;;;15.90;44.50;;;;;;5050762;28;20186;-83
2023/03/17 11:15:09;;;;;;;6.97;6.27;;;16.10;44.40;;;;;;5047705;28;20205;-85
2023/03/17 11:17:41;;;;;;;6.70;5.97;;;16.40;44.20;;;;;;5041928;28;20316;-84
2023/03/17 11:20:37;;;;;;;6.60;5.97;;;16.50;43.20;;;;;;5042448;28;20159;-85
2023/03/17 11:23:30;;;;;;;6.80;5.50;;;16.70;42.70;;;;;;5056721;28;20211;-85
2023/03/17 11:26:24;;;;;;;8.25;5.95;;;16.70;43.50;;;;;;4999887;28;20679;-85
2023/03/17 11:29:04;;;;;;;6.47;5.87;;;16.50;43.40;;;;;;5021125;28;20193;-85
2023/03/17 11:31:36;;;;;;;7.75;6.75;;;16.00;45.10;;;;;;5020315;28;20187;-84
2023/03/17 11:34:10;;;;;;;6.40;5.80;;;16.00;45.40;;;;;;5019787;28;20303;-85
2023/03/17 11:37:05;;;;;;;7.15;6.45;;;16.20;46.10;;;;;;5006839;28;20197;-85
2023/03/17 11:39:46;;;;;;;7.70;6.32;;;16.20;44.60;;;;;;5021251;28;20191;-84
2023/03/17 11:42:51;;;;;;;6.30;5.70;;;16.30;45.50;;;;;;5022635;28;20192;-86
2023/03/17 11:45:40;;;;;;;6.60;5.97;;;16.90;42.30;;;;;;5019511;28;20593;-85
2023/03/17 11:48:28;;;;;;;6.18;5.57;;;16.70;42.50;;;;;;5018697;28;20270;-83
2023/03/17 11:51:31;;;;;;;5.90;5.40;;;16.30;44.70;;;;;;5020548;28;20213;-84
2023/03/17 11:54:32;;;;;;;5.85;5.45;;;16.10;44.50;;;;;;4987004;28;20239;-85
2023/03/17 11:57:01;;;;;;;6.95;6.03;;;16.20;44.90;;;;;;4983442;28;20339;-85
2023/03/17 12:00:05;;;;;;;6.95;6.35;;;16.20;46.20;;;;;;5018906;28;20502;-86
2023/03/17 12:02:59;;;;;;;5.65;5.18;;;16.10;46.90;;;;;;5020761;28;20234;-81
2023/03/17 12:05:27;;;;;;;6.05;5.45;;;16.50;44.50;;;;;;5020894;28;20215;-82
2023/03/17 12:08:02;;;;;;;6.60;5.55;;;16.90;43.50;;;;;;5020141;28;20214;-83
2023/03/17 12:10:40;;;;;;;10.30;5.50;;;16.90;44.10;;;;;;5017270;28;21157;-85
2023/03/17 12:13:08;;;;;;;5.70;5.20;;;16.60;43.60;;;;;;5015723;28;20505;-82
2023/03/17 12:15:40;;;;;;;6.15;5.55;;;17.10;43.10;;;;;;5015568;28;20211;-84
2023/03/17 12:18:29;;;;;;;5.95;5.40;;;17.10;44.00;;;;;;5018015;28;20215;-83
2023/03/17 12:20:55;;;;;;;6.50;6.00;;;17.10;44.10;;;;;;5016084;28;20261;-83
2023/03/17 12:23:30;;;;;;;5.72;5.22;;;17.20;46.50;;;;;;5016028;28;20251;-85
2023/03/17 12:26:05;;;;;;;6.20;5.70;;;17.00;45.60;;;;;;5018202;28;20188;-86
2023/03/17 12:28:39;;;;;;;5.88;5.38;;;17.20;42.60;;;;;;5016755;28;20200;-82
2023/03/17 12:31:11;;;;;;;6.93;5.75;;;16.90;44.40;;;;;;5018914;28;20173;-84
2023/03/17 12:34:03;;;;;;;7.78;5.22;;;17.10;43.10;;;;;;5017727;28;20327;-86
2023/03/17 12:36:40;;;;;;;6.25;5.65;;;17.30;43.60;;;;;;5018751;28;20211;-85
2023/03/17 12:39:12;;;;;;;5.80;5.30;;;17.50;45.30;;;;;;5013508;28;20177;-83
2023/03/17 12:42:04;;;;;;;5.70;5.20;;;17.70;45.70;;;;;;5019768;28;20186;-83
2023/03/17 12:44:51;;;;;;;6.07;5.47;;;18.00;42.80;;;;;;5017167;28;21183;-85
2023/03/17 12:47:31;;;;;;;8.68;5.22;;;18.50;40.50;;;;;;5015343;28;20257;-83
2023/03/17 12:50:04;;;;;;;10.70;6.10;;;19.10;39.60;;;;;;5018338;28;20193;-84
2023/03/17 12:52:38;;;;;;;7.15;5.30;;;19.60;38.40;;;;;;5022188;28;20268;-83
2023/03/17 12:55:11;;;;;;;5.90;5.07;;;19.80;37.70;;;;;;5016301;28;20313;-83
2023/03/17 12:57:45;;;;;;;5.32;4.93;;;20.10;36.90;;;;;;5014331;28;20192;-83
2023/03/17 13:00:27;;;;;;;5.60;4.90;;;19.70;38.80;;;;;;5016206;28;20757;-84
2023/03/17 13:03:23;;;;;;;5.13;4.72;;;19.70;36.20;;;;;;5019295;28;20236;-83
2023/03/17 13:05:53;;;;;;;5.38;4.82;;;19.50;36.70;;;;;;4993132;28;20190;-83